Página principal
METAR-TAF:

METAR-TAF

Aeroportos :

South Naknek, Alasca, Estados Unidos

latitude: 58-42-08N, longitude: 157-00-09W, altura: 49 m

Observação actual do tempo

O boletim foi feito há 1 hora e 20 minutos, às 21:56 UTC
Vento 6 kt de oes-noroeste
Temperatura 21°C
Humidade 69%
Pressão 1017 hPa
Visibilidade: 16.1 km
Céu limpo

METAR: PFWS 222156Z AUTO 29006KT 10SM CLR 21/15 A3003 RMK AO2 SLP211 T02060150

Hora: 15:16 (23:16 UTC)


TAF: em falta

Observações e previsões do tempo de mais de 4000 aeroportos (mensagens METAR e TAF).

As estações disponíveis são os pontos amarelos e vermelhos sobre o mapa.

Mova o rato sobre o mapa para ver o nome da estação.

Depois clique no ponto para visualizar as observações e previsões meteorológicas.

Para alterar o mapa : clique nos botões verdes com uma cruz preta para aumentar o zoom; no botão verde com uma pitada de zoom; ou nas setas verdes para mapas adjacentes.


METAR-TAF: